Time;durP1;ratioP1;P1;durP2;ratioP2;P2;SDS_P1;SDS_P2;PMS_P1;PMS_P2;Temp;Humidity;BMP_temperature;BMP_pressure;BME280_temperature;BME280_humidity;BME280_pressure;Samples;Min_cycle;Max_cycle;Signal;HPM_P1;HPM_P2
2022/11/04 00:02:00;;;;;;;;;;;10.00;99.90;;;;;;4974098;28;19933;-74
2022/11/04 00:04:32;;;;;;;;;;;10.10;99.90;;;;;;4989298;28;19930;-74
2022/11/04 00:06:58;;;;;;;;;;;10.10;99.90;;;;;;4976147;28;19933;-74
2022/11/04 00:09:30;;;;;;;;;;;10.20;99.90;;;;;;4977369;28;20277;-74
2022/11/04 00:14:53;;;;;;;;;;;10.20;99.90;;;;;;4993254;28;19952;-74
2022/11/04 00:17:25;;;;;;;;;;;10.20;99.90;;;;;;4993628;28;20392;-72
2022/11/04 00:33:54;;;;;;;;;;;10.30;99.90;;;;;;5006781;28;19926;-74
2022/11/04 00:36:26;;;;;;;;;;;10.30;99.90;;;;;;4992222;28;19966;-75
2022/11/04 00:38:52;;;;;;;;;;;10.30;99.90;;;;;;4992547;28;19968;-74
2022/11/04 00:41:25;;;;;;;;;;;10.30;99.90;;;;;;4976698;28;20354;-74
2022/11/04 00:44:01;;;;;;;;;;;10.40;99.90;;;;;;4975745;28;19976;-76
2022/11/04 00:46:28;;;;;;;;;;;10.40;99.90;;;;;;4969190;28;19925;-75
2022/11/04 00:48:59;;;;;;;;;;;10.30;99.90;;;;;;4975829;28;19926;-76
2022/11/04 00:51:31;;;;;;;;;;;10.30;99.90;;;;;;4990110;28;19930;-74
2022/11/04 00:53:58;;;;;;;;;;;10.30;99.90;;;;;;4976117;28;19926;-74
2022/11/04 00:56:29;;;;;;;;;;;10.40;99.90;;;;;;4992577;28;20434;-74
2022/11/04 00:58:57;;;;;;;;;;;10.30;99.90;;;;;;4993974;28;19937;-73
2022/11/04 01:01:24;;;;;;;;;;;10.30;99.90;;;;;;5010287;28;19976;-72
2022/11/04 01:03:56;;;;;;;;;;;10.20;99.90;;;;;;4989020;28;19925;-73
2022/11/04 01:06:27;;;;;;;;;;;10.20;99.90;;;;;;4988867;28;19926;-72
2022/11/04 01:08:59;;;;;;;;;;;10.20;99.90;;;;;;5010036;28;19937;-73
2022/11/04 01:11:27;;;;;;;;;;;10.20;99.90;;;;;;4992352;28;20373;-72
2022/11/04 01:13:58;;;;;;;;;;;10.20;99.90;;;;;;4990904;28;19929;-73
2022/11/04 01:16:30;;;;;;;;;;;10.20;99.90;;;;;;4986828;28;19938;-72
2022/11/04 01:19:02;;;;;;;;;;;10.20;99.90;;;;;;4976529;28;20353;-74
2022/11/04 01:21:29;;;;;;;;;;;10.20;99.90;;;;;;4990688;28;20376;-73
2022/11/04 01:24:01;;;;;;;;;;;10.20;99.90;;;;;;5005916;28;19925;-73
2022/11/04 01:26:33;;;;;;;;;;;10.20;99.90;;;;;;4992545;28;19929;-72
2022/11/04 01:29:04;;;;;;;;;;;10.20;99.90;;;;;;4985736;28;19936;-74
2022/11/04 01:31:36;;;;;;;;;;;10.10;99.90;;;;;;4991461;28;19929;-72
2022/11/04 01:34:02;;;;;;;;;;;10.10;99.90;;;;;;4974076;28;19933;-71
2022/11/04 01:36:29;;;;;;;;;;;10.10;99.90;;;;;;5009215;28;20343;-73
2022/11/04 01:39:00;;;;;;;;;;;10.20;99.90;;;;;;4972369;28;19929;-74
2022/11/04 01:41:32;;;;;;;;;;;10.20;99.90;;;;;;4989089;28;19933;-73
2022/11/04 01:44:22;;;;;;;;;;;10.20;99.90;;;;;;4987040;28;19926;-74
2022/11/04 01:46:54;;;;;;;;;;;10.20;99.90;;;;;;5002361;28;19930;-74
2022/11/04 01:49:20;;;;;;;;;;;10.10;99.90;;;;;;4988803;28;19930;-77
2022/11/04 01:52:01;;;;;;;;;;;10.10;99.90;;;;;;5008330;28;19930;-74
2022/11/04 01:54:28;;;;;;;;;;;10.10;99.90;;;;;;4989786;28;19925;-73
2022/11/04 01:57:02;;;;;;;;;;;10.10;99.90;;;;;;4990832;28;20316;-74
2022/11/04 01:59:35;;;;;;;;;;;10.10;99.90;;;;;;4989477;28;19937;-73
2022/11/04 02:02:07;;;;;;;;;;;10.10;99.90;;;;;;4990686;28;20388;-74
2022/11/04 02:04:39;;;;;;;;;;;10.10;99.90;;;;;;4990126;28;19988;-75
2022/11/04 02:07:10;;;;;;;;;;;10.00;99.90;;;;;;4989503;28;20416;-73
2022/11/04 02:09:43;;;;;;;;;;;10.00;99.90;;;;;;4974326;28;20363;-74
2022/11/04 02:15:05;;;;;;;;;;;9.90;99.90;;;;;;5008435;28;19978;-75
2022/11/04 02:17:36;;;;;;;;;;;9.90;99.90;;;;;;4973249;28;19945;-74
2022/11/04 02:20:27;;;;;;;;;;;9.90;99.90;;;;;;4990202;28;19929;-74
2022/11/04 02:23:16;;;;;;;;;;;9.90;99.90;;;;;;4975235;28;19995;-75
2022/11/04 02:26:07;;;;;;;;;;;9.90;99.90;;;;;;4974917;28;19982;-73
2022/11/04 02:28:57;;;;;;;;;;;9.90;99.90;;;;;;4987067;28;19930;-71
2022/11/04 02:31:48;;;;;;;;;;;9.90;99.90;;;;;;4991445;28;20372;-73
2022/11/04 02:34:28;;;;;;;;;;;9.90;99.90;;;;;;4975407;28;19933;-73
2022/11/04 02:37:14;;;;;;;;;;;9.80;99.90;;;;;;4989236;28;19930;-74
2022/11/04 02:40:01;;;;;;;;;;;9.80;99.90;;;;;;4989687;28;19926;-73
2022/11/04 02:42:38;;;;;;;;;;;9.80;99.90;;;;;;4988076;28;19929;-75
2022/11/04 02:45:19;;;;;;;;;;;9.80;99.90;;;;;;5001807;28;19992;-75
2022/11/04 02:47:55;;;;;;;;;;;9.70;99.90;;;;;;4967780;28;19957;-75
2022/11/04 02:50:33;;;;;;;;;;;9.70;99.90;;;;;;4979994;28;20399;-73
2022/11/04 02:53:06;;;;;;;;;;;9.70;99.90;;;;;;4989661;28;19984;-73
2022/11/04 02:55:42;;;;;;;;;;;9.60;99.90;;;;;;5000999;28;19926;-75
2022/11/04 02:58:15;;;;;;;;;;;9.60;99.90;;;;;;4990539;28;19929;-75
2022/11/04 03:00:48;;;;;;;;;;;9.60;99.90;;;;;;4974562;28;20454;-75
2022/11/04 03:03:29;;;;;;;;;;;9.60;99.90;;;;;;4988469;28;20400;-75
2022/11/04 03:06:01;;;;;;;;;;;9.50;99.90;;;;;;4973833;28;19981;-73
2022/11/04 03:08:42;;;;;;;;;;;9.50;99.90;;;;;;4990570;28;19926;-72
2022/11/04 03:11:16;;;;;;;;;;;9.50;99.90;;;;;;4989479;28;19929;-74
2022/11/04 03:14:06;;;;;;;;;;;9.50;99.90;;;;;;5007969;28;19940;-76
2022/11/04 03:16:37;;;;;;;;;;;9.50;99.90;;;;;;4987159;28;19984;-75
2022/11/04 03:19:15;;;;;;;;;;;9.50;99.90;;;;;;4974909;28;19929;-74
2022/11/04 03:21:52;;;;;;;;;;;9.50;99.90;;;;;;4973788;28;19956;-75
2022/11/04 03:24:18;;;;;;;;;;;9.50;99.90;;;;;;5001637;28;19926;-76
2022/11/04 03:27:01;;;;;;;;;;;9.50;99.90;;;;;;4973940;28;20474;-74
2022/11/04 03:29:39;;;;;;;;;;;9.40;99.90;;;;;;4972955;28;19942;-74
2022/11/04 03:32:11;;;;;;;;;;;9.50;99.90;;;;;;4988869;28;19929;-75
2022/11/04 03:34:44;;;;;;;;;;;9.50;99.90;;;;;;4988495;28;19980;-74
2022/11/04 03:37:15;;;;;;;;;;;9.40;99.90;;;;;;4989520;28;19956;-73
2022/11/04 03:39:47;;;;;;;;;;;9.40;99.90;;;;;;4992077;28;19932;-75
2022/11/04 03:42:19;;;;;;;;;;;9.40;99.90;;;;;;4984907;28;19976;-75
2022/11/04 03:44:55;;;;;;;;;;;9.40;99.90;;;;;;4994376;28;19944;-74
2022/11/04 03:47:26;;;;;;;;;;;9.40;99.90;;;;;;4990574;28;19925;-75
2022/11/04 03:50:12;;;;;;;;;;;9.30;99.90;;;;;;4993631;28;19930;-74
2022/11/04 03:52:43;;;;;;;;;;;9.30;99.90;;;;;;4987378;28;19988;-75
2022/11/04 03:55:15;;;;;;;;;;;9.30;99.90;;;;;;5011021;28;19929;-74
2022/11/04 03:57:53;;;;;;;;;;;9.30;99.90;;;;;;4993170;28;19983;-72
2022/11/04 04:00:21;;;;;;;;;;;9.30;99.90;;;;;;4977022;28;19933;-72
2022/11/04 04:03:05;;;;;;;;;;;9.30;99.90;;;;;;4972404;28;19926;-74
2022/11/04 04:05:41;;;;;;;;;;;9.30;99.90;;;;;;4983567;28;20264;-74
2022/11/04 04:08:27;;;;;;;;;;;9.30;99.90;;;;;;4991768;28;19945;-74
2022/11/04 04:11:06;;;;;;;;;;;9.20;99.90;;;;;;4974521;28;20372;-72
2022/11/04 04:13:49;;;;;;;;;;;9.20;99.90;;;;;;4990954;28;20060;-74
2022/11/04 04:16:30;;;;;;;;;;;9.20;99.90;;;;;;4990618;28;20455;-73
2022/11/04 04:19:10;;;;;;;;;;;9.20;99.90;;;;;;4976737;28;19941;-74
2022/11/04 04:21:51;;;;;;;;;;;9.10;99.90;;;;;;4989557;28;19925;-75
2022/11/04 04:30:08;;;;;;;;;;;8.90;99.90;;;;;;4991524;28;20551;-74
2022/11/04 04:32:42;;;;;;;;;;;8.90;99.90;;;;;;4990435;28;19925;-74
2022/11/04 04:46:34;;;;;;;;;;;8.80;99.90;;;;;;4990871;28;19926;-76
2022/11/04 04:49:06;;;;;;;;;;;8.80;99.90;;;;;;4987423;28;19979;-74
2022/11/04 04:51:39;;;;;;;;;;;8.80;99.90;;;;;;4992704;28;19925;-74
2022/11/04 04:54:06;;;;;;;;;;;8.80;99.90;;;;;;5007071;28;20668;-71
2022/11/04 04:56:38;;;;;;;;;;;8.80;99.90;;;;;;4991856;28;19925;-75
2022/11/04 04:59:04;;;;;;;;;;;8.80;99.90;;;;;;4977103;28;19965;-72
2022/11/04 05:01:36;;;;;;;;;;;8.80;99.90;;;;;;4985855;28;19926;-75
2022/11/04 05:04:08;;;;;;;;;;;8.80;99.90;;;;;;5009430;28;19925;-74
2022/11/04 05:06:39;;;;;;;;;;;8.80;99.90;;;;;;4987843;28;19979;-73
2022/11/04 05:09:06;;;;;;;;;;;8.70;99.90;;;;;;4990055;28;19991;-73
2022/11/04 05:11:37;;;;;;;;;;;8.80;99.90;;;;;;4992504;28;19929;-74
2022/11/04 05:14:09;;;;;;;;;;;8.80;99.90;;;;;;5010156;28;19925;-73
2022/11/04 05:16:40;;;;;;;;;;;8.80;99.90;;;;;;4993210;28;19929;-73
2022/11/04 05:19:12;;;;;;;;;;;8.90;99.90;;;;;;4974355;28;19941;-75
2022/11/04 05:21:44;;;;;;;;;;;8.80;99.90;;;;;;4983278;28;19936;-74
2022/11/04 05:24:15;;;;;;;;;;;8.80;99.90;;;;;;4974590;28;20178;-75
2022/11/04 05:26:47;;;;;;;;;;;8.80;99.90;;;;;;4992813;28;20388;-72
2022/11/04 05:29:14;;;;;;;;;;;8.70;99.90;;;;;;5009344;28;19925;-73
2022/11/04 05:31:45;;;;;;;;;;;8.70;99.90;;;;;;4990967;28;19929;-73
2022/11/04 05:34:17;;;;;;;;;;;8.60;99.90;;;;;;5008674;28;20442;-71
2022/11/04 05:36:49;;;;;;;;;;;8.50;99.90;;;;;;4994532;28;20663;-73
2022/11/04 05:39:15;;;;;;;;;;;8.50;99.90;;;;;;4991063;28;19929;-73
2022/11/04 05:41:42;;;;;;;;;;;8.40;99.90;;;;;;5010763;28;20611;-73
2022/11/04 05:44:09;;;;;;;;;;;8.40;99.90;;;;;;4977088;28;19926;-75
2022/11/04 05:46:36;;;;;;;;;;;8.40;99.90;;;;;;4990738;28;19929;-74
2022/11/04 05:49:07;;;;;;;;;;;8.40;99.90;;;;;;4996968;28;19937;-74
2022/11/04 05:51:39;;;;;;;;;;;8.40;99.90;;;;;;5008868;28;19972;-74
2022/11/04 05:54:06;;;;;;;;;;;8.40;99.90;;;;;;4993889;28;19933;-75
2022/11/04 05:56:37;;;;;;;;;;;8.40;99.90;;;;;;4991671;28;19925;-74
2022/11/04 05:59:04;;;;;;;;;;;8.30;99.90;;;;;;4977307;28;19979;-74
2022/11/04 06:01:39;;;;;;;;;;;8.30;99.90;;;;;;4993752;28;19996;-73
2022/11/04 06:04:12;;;;;;;;;;;8.30;99.90;;;;;;4984268;28;19940;-74
2022/11/04 06:06:44;;;;;;;;;;;8.30;99.90;;;;;;4988390;28;21737;-74
2022/11/04 06:09:16;;;;;;;;;;;8.30;99.90;;;;;;4993735;28;20446;-74
2022/11/04 06:11:47;;;;;;;;;;;8.30;99.90;;;;;;4991826;28;20339;-74
2022/11/04 06:14:19;;;;;;;;;;;8.30;99.90;;;;;;5010781;28;20007;-74
2022/11/04 06:16:50;;;;;;;;;;;8.20;99.90;;;;;;4989714;28;19937;-75
2022/11/04 06:19:22;;;;;;;;;;;8.30;99.90;;;;;;4992486;28;19933;-75
2022/11/04 06:21:54;;;;;;;;;;;8.30;99.90;;;;;;4992929;28;19937;-75
2022/11/04 06:24:25;;;;;;;;;;;8.30;99.90;;;;;;4991860;28;20472;-74
2022/11/04 06:26:57;;;;;;;;;;;8.30;99.90;;;;;;4991015;28;19980;-75
2022/11/04 06:29:28;;;;;;;;;;;8.20;99.90;;;;;;4977067;28;19933;-75
2022/11/04 06:32:00;;;;;;;;;;;8.20;99.90;;;;;;4976033;28;19925;-75
2022/11/04 06:34:31;;;;;;;;;;;8.20;99.90;;;;;;4993014;28;19995;-75
2022/11/04 06:37:03;;;;;;;;;;;8.20;99.90;;;;;;4993723;28;19984;-76
2022/11/04 06:39:35;;;;;;;;;;;8.30;99.90;;;;;;4973734;28;19930;-74
2022/11/04 06:42:02;;;;;;;;;;;8.20;99.90;;;;;;4991971;28;20308;-74
2022/11/04 06:44:34;;;;;;;;;;;8.20;99.90;;;;;;5010625;28;19930;-74
2022/11/04 06:47:06;;;;;;;;;;;8.30;99.90;;;;;;4977210;28;19932;-75
2022/11/04 06:49:38;;;;;;;;;;;8.30;99.90;;;;;;4991118;28;19925;-75
2022/11/04 06:52:10;;;;;;;;;;;8.30;99.90;;;;;;4991697;28;20335;-74
2022/11/04 06:54:36;;;;;;;;;;;8.30;99.90;;;;;;5010336;28;19976;-74
2022/11/04 06:57:09;;;;;;;;;;;8.30;99.90;;;;;;4990364;28;19952;-74
2022/11/04 06:59:41;;;;;;;;;;;8.30;99.90;;;;;;5010278;28;19934;-74
2022/11/04 07:02:12;;;;;;;;;;;8.30;99.90;;;;;;4974453;28;19999;-75
2022/11/04 07:04:44;;;;;;;;;;;8.30;99.90;;;;;;4993608;28;20450;-74
2022/11/04 07:07:15;;;;;;;;;;;8.30;99.90;;;;;;4991288;28;20293;-75
2022/11/04 07:09:47;;;;;;;;;;;8.30;99.90;;;;;;4992604;28;19985;-74
2022/11/04 07:12:21;;;;;;;;;;;8.40;99.90;;;;;;5010219;28;19926;-74
2022/11/04 07:14:54;;;;;;;;;;;8.40;99.90;;;;;;4994541;28;19929;-74
2022/11/04 07:17:26;;;;;;;;;;;8.30;99.90;;;;;;4994014;28;19925;-76
2022/11/04 07:19:57;;;;;;;;;;;8.30;99.90;;;;;;4977854;28;19961;-74
2022/11/04 07:22:29;;;;;;;;;;;8.20;99.90;;;;;;5007799;28;19929;-73
2022/11/04 07:25:00;;;;;;;;;;;8.20;99.90;;;;;;4991106;28;19929;-74
2022/11/04 07:27:32;;;;;;;;;;;8.10;99.90;;;;;;4980393;28;19925;-73
2022/11/04 07:30:04;;;;;;;;;;;8.10;99.90;;;;;;4991865;28;19986;-73
2022/11/04 07:32:35;;;;;;;;;;;8.20;99.90;;;;;;4979707;28;19937;-73
2022/11/04 07:35:07;;;;;;;;;;;8.20;99.90;;;;;;4995472;28;19929;-73
2022/11/04 07:37:38;;;;;;;;;;;8.10;99.90;;;;;;4992491;28;19980;-73
2022/11/04 07:40:10;;;;;;;;;;;8.20;99.90;;;;;;5007788;28;19926;-73
2022/11/04 07:42:42;;;;;;;;;;;8.10;99.90;;;;;;4979503;28;19972;-73
2022/11/04 07:45:16;;;;;;;;;;;8.10;99.90;;;;;;4979332;28;20048;-72
2022/11/04 07:47:48;;;;;;;;;;;8.00;99.90;;;;;;4996086;28;19937;-72
2022/11/04 07:50:19;;;;;;;;;;;8.00;99.90;;;;;;4994303;28;19952;-74
2022/11/04 07:52:51;;;;;;;;;;;8.00;99.90;;;;;;4997136;28;19930;-73
2022/11/04 07:55:22;;;;;;;;;;;8.00;99.90;;;;;;4993834;28;19980;-75
2022/11/04 07:57:54;;;;;;;;;;;8.00;99.90;;;;;;5009765;28;19975;-73
2022/11/04 08:00:25;;;;;;;;;;;8.00;99.90;;;;;;4993439;28;19926;-74
2022/11/04 08:02:57;;;;;;;;;;;8.00;99.90;;;;;;5011343;28;19932;-74
2022/11/04 08:05:29;;;;;;;;;;;8.00;99.90;;;;;;4994830;28;19932;-75
2022/11/04 08:08:00;;;;;;;;;;;8.10;99.90;;;;;;4980100;28;19980;-74
2022/11/04 08:10:27;;;;;;;;;;;8.10;99.90;;;;;;4992646;28;19933;-74
2022/11/04 08:12:59;;;;;;;;;;;8.10;99.90;;;;;;4975797;28;19926;-74
2022/11/04 08:15:31;;;;;;;;;;;8.10;99.90;;;;;;4984261;28;19979;-73
2022/11/04 08:17:57;;;;;;;;;;;8.10;99.90;;;;;;4974259;28;20327;-73
2022/11/04 08:20:29;;;;;;;;;;;8.10;99.90;;;;;;4977624;28;19925;-75
2022/11/04 08:23:00;;;;;;;;;;;8.20;99.90;;;;;;5013850;28;19933;-74
2022/11/04 08:25:32;;;;;;;;;;;8.20;99.90;;;;;;4969951;28;19929;-75
2022/11/04 08:28:03;;;;;;;;;;;8.20;99.90;;;;;;4992755;28;19925;-74
2022/11/04 08:30:35;;;;;;;;;;;8.20;99.90;;;;;;4987801;28;19930;-74
2022/11/04 08:33:07;;;;;;;;;;;8.20;99.90;;;;;;4992755;28;19980;-73
2022/11/04 08:35:40;;;;;;;;;;;8.20;99.90;;;;;;4992131;28;20408;-74
2022/11/04 08:38:12;;;;;;;;;;;8.20;99.90;;;;;;5012191;28;19926;-74
2022/11/04 08:40:44;;;;;;;;;;;8.30;99.90;;;;;;5010581;28;19929;-73
2022/11/04 08:43:15;;;;;;;;;;;8.30;99.90;;;;;;4993055;28;19972;-74
2022/11/04 08:45:47;;;;;;;;;;;8.30;99.90;;;;;;5012006;28;19925;-73
2022/11/04 08:48:19;;;;;;;;;;;8.30;99.90;;;;;;5012433;28;19929;-74
2022/11/04 08:50:51;;;;;;;;;;;8.30;99.90;;;;;;4981716;28;19925;-74
2022/11/04 08:53:23;;;;;;;;;;;8.40;99.90;;;;;;5010246;28;19925;-74
2022/11/04 08:55:50;;;;;;;;;;;8.40;99.90;;;;;;4995116;28;19925;-74
2022/11/04 08:58:22;;;;;;;;;;;8.40;99.90;;;;;;4974614;28;19973;-75
2022/11/04 09:00:54;;;;;;;;;;;8.50;99.90;;;;;;5012154;28;19925;-74
2022/11/04 09:03:26;;;;;;;;;;;8.50;99.90;;;;;;4993634;28;19980;-74
2022/11/04 09:05:57;;;;;;;;;;;8.50;99.90;;;;;;4991224;28;19925;-75
2022/11/04 09:08:29;;;;;;;;;;;8.50;99.90;;;;;;4987264;28;19926;-74
2022/11/04 09:11:00;;;;;;;;;;;8.50;99.90;;;;;;4993493;28;19925;-75
2022/11/04 09:13:27;;;;;;;;;;;8.50;99.90;;;;;;4995082;28;20304;-75
2022/11/04 09:15:59;;;;;;;;;;;8.50;99.90;;;;;;4973592;28;19925;-75
2022/11/04 09:18:30;;;;;;;;;;;8.60;99.90;;;;;;4992178;28;19952;-76
2022/11/04 09:21:03;;;;;;;;;;;8.50;99.90;;;;;;5007828;28;19926;-74
2022/11/04 09:23:35;;;;;;;;;;;8.50;99.90;;;;;;4991854;28;20446;-76
2022/11/04 09:26:11;;;;;;;;;;;8.60;99.90;;;;;;5006638;28;20000;-74
2022/11/04 09:28:39;;;;;;;;;;;8.60;99.90;;;;;;5007990;28;19932;-74
2022/11/04 09:31:06;;;;;;;;;;;8.60;99.90;;;;;;5009668;28;20390;-76
2022/11/04 09:33:38;;;;;;;;;;;8.60;99.90;;;;;;4988120;28;19929;-75
2022/11/04 09:36:10;;;;;;;;;;;8.60;99.90;;;;;;4991482;28;19926;-75
2022/11/04 09:38:42;;;;;;;;;;;8.60;99.90;;;;;;4991917;28;19971;-73
2022/11/04 09:41:27;;;;;;;;;;;8.60;99.90;;;;;;5008559;28;19929;-73
2022/11/04 09:44:17;;;;;;;;;;;8.70;99.90;;;;;;4989061;28;19937;-74
2022/11/04 09:46:51;;;;;;;;;;;8.70;99.90;;;;;;4989911;28;19933;-75
2022/11/04 09:49:26;;;;;;;;;;;8.70;99.90;;;;;;5007271;28;20399;-74
2022/11/04 09:51:55;;;;;;;;;;;8.80;99.90;;;;;;4971512;28;19926;-74
2022/11/04 09:54:47;;;;;;;;;;;8.80;99.90;;;;;;4986161;28;19981;-74
2022/11/04 09:57:17;;;;;;;;;;;8.80;99.90;;;;;;4986847;28;20354;-74
2022/11/04 09:59:49;;;;;;;;;;;8.80;99.90;;;;;;4991713;28;19956;-74
2022/11/04 10:02:26;;;;;;;;;;;8.90;99.90;;;;;;5009797;28;20331;-74
2022/11/04 10:05:10;;;;;;;;;;;8.90;99.90;;;;;;4977797;28;19925;-73
2022/11/04 10:07:53;;;;;;;;;;;9.00;99.90;;;;;;4975465;28;19976;-74
2022/11/04 10:10:22;;;;;;;;;;;9.00;99.90;;;;;;5005988;28;19930;-75
2022/11/04 10:13:14;;;;;;;;;;;9.00;99.90;;;;;;4991159;28;20342;-75
2022/11/04 10:15:53;;;;;;;;;;;9.00;99.90;;;;;;4987818;28;19933;-74
2022/11/04 10:18:30;;;;;;;;;;;9.10;99.90;;;;;;4990706;28;19925;-74
2022/11/04 10:21:05;;;;;;;;;;;9.10;99.90;;;;;;4984233;28;20411;-74
2022/11/04 10:23:42;;;;;;;;;;;9.10;99.90;;;;;;4991414;28;20019;-74
2022/11/04 10:26:18;;;;;;;;;;;9.20;99.90;;;;;;5007573;28;19930;-75
2022/11/04 10:28:54;;;;;;;;;;;9.20;99.90;;;;;;4987918;28;20701;-75
2022/11/04 10:31:20;;;;;;;;;;;9.20;99.90;;;;;;5007232;28;19937;-74
2022/11/04 10:34:02;;;;;;;;;;;9.20;99.90;;;;;;4991620;28;20303;-73
2022/11/04 10:36:35;;;;;;;;;;;9.20;99.90;;;;;;4990039;28;19929;-74
2022/11/04 10:39:15;;;;;;;;;;;9.30;99.90;;;;;;4991230;28;20539;-72
2022/11/04 10:41:47;;;;;;;;;;;9.30;99.90;;;;;;4989991;28;19934;-72
2022/11/04 10:44:21;;;;;;;;;;;9.40;99.90;;;;;;5008137;28;20003;-73
2022/11/04 10:46:56;;;;;;;;;;;9.50;99.90;;;;;;4986780;28;19925;-74
2022/11/04 10:49:33;;;;;;;;;;;9.50;99.90;;;;;;4982991;28;20389;-73
2022/11/04 10:52:06;;;;;;;;;;;9.50;99.90;;;;;;4991774;28;20388;-75
2022/11/04 10:54:39;;;;;;;;;;;9.60;99.90;;;;;;4974973;28;19948;-73
2022/11/04 10:57:11;;;;;;;;;;;9.60;99.90;;;;;;4989780;28;20554;-72
2022/11/04 10:59:44;;;;;;;;;;;9.60;99.90;;;;;;4990167;28;20009;-74
2022/11/04 11:02:11;;;;;;;;;;;9.60;99.90;;;;;;4990099;28;19988;-73
2022/11/04 11:04:46;;;;;;;;;;;9.60;99.90;;;;;;4990829;28;20554;-72
2022/11/04 11:07:21;;;;;;;;;;;9.70;99.90;;;;;;5006654;28;19926;-72
2022/11/04 11:09:59;;;;;;;;;;;9.60;99.90;;;;;;4973884;28;19972;-72
2022/11/04 11:12:39;;;;;;;;;;;9.60;99.90;;;;;;5007929;28;19930;-74
2022/11/04 11:15:17;;;;;;;;;;;9.60;99.90;;;;;;5006502;28;19932;-73
2022/11/04 11:17:45;;;;;;;;;;;9.60;99.90;;;;;;4990798;28;19931;-72
2022/11/04 11:20:13;;;;;;;;;;;9.60;99.90;;;;;;4989654;28;20281;-72
2022/11/04 11:22:46;;;;;;;;;;;9.70;99.90;;;;;;4994345;28;19933;-74
2022/11/04 11:25:26;;;;;;;;;;;9.70;99.90;;;;;;4988998;28;19925;-74
2022/11/04 11:27:59;;;;;;;;;;;9.70;99.90;;;;;;4991505;28;19999;-73
2022/11/04 11:30:35;;;;;;;;;;;9.80;99.90;;;;;;4990489;28;20463;-74
2022/11/04 11:33:16;;;;;;;;;;;9.80;99.90;;;;;;4990926;28;19929;-77
2022/11/04 11:35:50;;;;;;;;;;;9.80;99.90;;;;;;5004172;28;19927;-73
2022/11/04 11:38:29;;;;;;;;;;;9.90;99.90;;;;;;4990193;28;19929;-73
2022/11/04 11:41:06;;;;;;;;;;;9.90;99.90;;;;;;5002432;28;20335;-73
2022/11/04 11:43:34;;;;;;;;;;;9.90;99.90;;;;;;5005150;28;19929;-73
2022/11/04 11:46:05;;;;;;;;;;;9.90;99.90;;;;;;5006251;28;19983;-73
2022/11/04 11:48:38;;;;;;;;;;;9.80;99.90;;;;;;4987498;28;20427;-73
2022/11/04 11:51:05;;;;;;;;;;;9.80;99.90;;;;;;4987740;28;19925;-74
2022/11/04 11:53:44;;;;;;;;;;;9.80;99.90;;;;;;4973598;28;19972;-72
2022/11/04 11:56:22;;;;;;;;;;;9.80;99.90;;;;;;4995531;28;19971;-73
2022/11/04 11:59:04;;;;;;;;;;;9.80;99.90;;;;;;4985855;28;20388;-74
2022/11/04 12:01:33;;;;;;;;;;;9.80;99.90;;;;;;4976979;28;19929;-73
2022/11/04 12:04:06;;;;;;;;;;;9.80;99.90;;;;;;4977121;28;20330;-73
2022/11/04 12:06:53;;;;;;;;;;;9.80;99.90;;;;;;5009291;28;19984;-73
2022/11/04 12:09:45;;;;;;;;;;;9.80;99.90;;;;;;5009560;28;19983;-76
2022/11/04 12:12:15;;;;;;;;;;;9.80;99.90;;;;;;5006705;28;19937;-76
2022/11/04 12:14:54;;;;;;;;;;;9.80;99.90;;;;;;4977185;28;19968;-74
2022/11/04 12:17:32;;;;;;;;;;;9.90;99.90;;;;;;4987502;28;20007;-74
2022/11/04 12:20:19;;;;;;;;;;;9.90;99.90;;;;;;4975292;28;20462;-75
2022/11/04 12:23:26;;;;;;;;;;;10.00;99.90;;;;;;4991698;28;19926;-73
2022/11/04 12:25:53;;;;;;;;;;;10.00;99.90;;;;;;4910109;29;19977;-75
2022/11/04 12:28:24;;;;;;;;;;;10.00;99.90;;;;;;4989246;28;19929;-73
2022/11/04 12:31:14;;;;;;;;;;;10.00;99.90;;;;;;4994212;28;20610;-73
2022/11/04 12:33:50;;;;;;;;;;;10.00;99.90;;;;;;4977609;28;19976;-74
2022/11/04 12:36:40;;;;;;;;;;;10.00;99.90;;;;;;5010008;28;19929;-73
2022/11/04 12:39:21;;;;;;;;;;;9.90;99.90;;;;;;4975785;28;19971;-73
2022/11/04 12:41:52;;;;;;;;;;;9.90;99.90;;;;;;5010794;28;19925;-73
2022/11/04 12:44:27;;;;;;;;;;;9.80;99.90;;;;;;4977291;28;20388;-72
2022/11/04 12:47:12;;;;;;;;;;;9.90;99.90;;;;;;4991014;28;20408;-75
2022/11/04 12:49:48;;;;;;;;;;;9.90;99.90;;;;;;5010323;28;19988;-72
2022/11/04 12:52:19;;;;;;;;;;;10.00;99.90;;;;;;4994991;28;19925;-74
2022/11/04 12:55:03;;;;;;;;;;;10.00;99.90;;;;;;5009475;28;19925;-73
2022/11/04 12:57:47;;;;;;;;;;;9.90;99.90;;;;;;4988971;28;20788;-74
2022/11/04 13:00:23;;;;;;;;;;;10.00;99.90;;;;;;4991345;28;19925;-73
2022/11/04 13:02:54;;;;;;;;;;;10.00;99.90;;;;;;5007780;28;19929;-74
2022/11/04 13:05:26;;;;;;;;;;;10.10;99.90;;;;;;4992182;28;19926;-74
2022/11/04 13:08:15;;;;;;;;;;;10.10;99.90;;;;;;4993477;28;20307;-72
2022/11/04 13:11:01;;;;;;;;;;;10.10;99.90;;;;;;5008633;28;19926;-74
2022/11/04 13:13:35;;;;;;;;;;;10.20;99.90;;;;;;4991309;28;20685;-75
2022/11/04 13:16:09;;;;;;;;;;;10.20;99.90;;;;;;5011107;28;19980;-75
2022/11/04 13:18:42;;;;;;;;;;;10.30;99.90;;;;;;4996367;28;20630;-74
2022/11/04 13:21:11;;;;;;;;;;;10.30;99.90;;;;;;5010969;28;20404;-74
2022/11/04 13:23:45;;;;;;;;;;;10.20;99.90;;;;;;4992946;28;19984;-75
2022/11/04 13:26:16;;;;;;;;;;;10.30;99.90;;;;;;4989873;28;19937;-76
2022/11/04 13:28:58;;;;;;;;;;;10.30;99.90;;;;;;4977289;28;19980;-76
2022/11/04 13:31:44;;;;;;;;;;;10.40;99.90;;;;;;4992700;28;19988;-76
2022/11/04 13:34:20;;;;;;;;;;;10.40;99.90;;;;;;4992553;28;19940;-74
2022/11/04 13:37:10;;;;;;;;;;;10.40;99.90;;;;;;4991693;28;19933;-72
2022/11/04 13:39:42;;;;;;;;;;;10.40;99.90;;;;;;4992895;28;19929;-74
2022/11/04 13:42:21;;;;;;;;;;;10.40;99.90;;;;;;4983390;28;19925;-74
2022/11/04 13:44:50;;;;;;;;;;;10.50;99.90;;;;;;4993204;28;19932;-71
2022/11/04 13:47:19;;;;;;;;;;;10.50;99.90;;;;;;4974619;28;20332;-73
2022/11/04 13:49:53;;;;;;;;;;;10.60;99.90;;;;;;5008777;28;19984;-75
2022/11/04 13:52:27;;;;;;;;;;;10.60;99.90;;;;;;4992827;28;19948;-72
2022/11/04 13:54:58;;;;;;;;;;;10.60;99.90;;;;;;4990890;28;19932;-72
2022/11/04 13:57:25;;;;;;;;;;;10.50;99.90;;;;;;5008932;28;20346;-74
2022/11/04 14:00:11;;;;;;;;;;;10.50;99.90;;;;;;4990623;28;19980;-73
2022/11/04 14:02:43;;;;;;;;;;;10.50;99.90;;;;;;5007797;28;19926;-72
2022/11/04 14:05:27;;;;;;;;;;;10.60;99.90;;;;;;5009310;28;19934;-74
2022/11/04 14:08:02;;;;;;;;;;;10.60;99.90;;;;;;4986280;28;19925;-74
2022/11/04 14:10:36;;;;;;;;;;;10.60;99.90;;;;;;5008430;28;19929;-73
2022/11/04 14:13:22;;;;;;;;;;;10.50;99.90;;;;;;4991908;28;19987;-72
2022/11/04 14:15:58;;;;;;;;;;;10.50;99.90;;;;;;5009305;28;20396;-72
2022/11/04 14:18:38;;;;;;;;;;;10.50;99.90;;;;;;4989592;28;19929;-73
2022/11/04 14:21:13;;;;;;;;;;;10.50;99.90;;;;;;4976713;28;19933;-72
2022/11/04 14:23:46;;;;;;;;;;;10.40;99.90;;;;;;5003442;28;20346;-71
2022/11/04 14:26:23;;;;;;;;;;;10.40;99.90;;;;;;4992135;28;19929;-72
2022/11/04 14:29:01;;;;;;;;;;;10.40;99.90;;;;;;5008974;28;19984;-73
2022/11/04 14:31:39;;;;;;;;;;;10.40;99.90;;;;;;4978669;28;19934;-75
2022/11/04 14:34:28;;;;;;;;;;;10.40;99.90;;;;;;4990859;28;19929;-74
2022/11/04 14:37:18;;;;;;;;;;;10.40;99.90;;;;;;5008032;28;19979;-75
2022/11/04 14:39:44;;;;;;;;;;;10.40;99.90;;;;;;4971126;28;19930;-75
2022/11/04 14:42:36;;;;;;;;;;;10.40;99.90;;;;;;5008566;28;19929;-75
2022/11/04 14:45:10;;;;;;;;;;;10.30;99.90;;;;;;4984123;28;20392;-75
2022/11/04 14:47:45;;;;;;;;;;;10.30;99.90;;;;;;4987789;28;19929;-75
2022/11/04 14:50:23;;;;;;;;;;;10.30;99.90;;;;;;4990080;28;19933;-76
2022/11/04 14:52:52;;;;;;;;;;;10.30;99.90;;;;;;5005804;28;19925;-74
2022/11/04 14:55:26;;;;;;;;;;;10.40;99.90;;;;;;4990236;28;19925;-75
2022/11/04 14:57:54;;;;;;;;;;;10.40;99.90;;;;;;4989740;28;19933;-76
2022/11/04 15:00:21;;;;;;;;;;;10.40;99.90;;;;;;4974322;28;19925;-73
2022/11/04 15:03:05;;;;;;;;;;;10.40;99.90;;;;;;4972693;28;19933;-75
2022/11/04 15:05:38;;;;;;;;;;;10.40;99.90;;;;;;4994333;28;19980;-74
2022/11/04 15:08:24;;;;;;;;;;;10.50;99.90;;;;;;4988182;28;19929;-75
2022/11/04 15:10:56;;;;;;;;;;;10.40;99.90;;;;;;5003654;28;19936;-74
2022/11/04 15:13:23;;;;;;;;;;;10.50;99.90;;;;;;4985304;28;19940;-74
2022/11/04 15:15:52;;;;;;;;;;;10.40;99.90;;;;;;4989354;28;19925;-73
2022/11/04 15:18:25;;;;;;;;;;;10.40;99.90;;;;;;5003950;28;21473;-73
2022/11/04 15:20:59;;;;;;;;;;;10.40;99.90;;;;;;4989759;28;19932;-74
2022/11/04 15:23:27;;;;;;;;;;;10.40;99.90;;;;;;4988068;28;19929;-76
2022/11/04 15:26:00;;;;;;;;;;;10.30;99.90;;;;;;5005112;28;19980;-74
2022/11/04 15:28:34;;;;;;;;;;;10.30;99.90;;;;;;4991252;28;19930;-74
2022/11/04 15:31:16;;;;;;;;;;;10.30;99.90;;;;;;4974385;28;19979;-74
2022/11/04 15:33:55;;;;;;;;;;;10.20;99.90;;;;;;5007848;28;21867;-76
2022/11/04 15:36:27;;;;;;;;;;;10.10;99.90;;;;;;4992976;28;19980;-74
2022/11/04 15:39:01;;;;;;;;;;;10.00;99.90;;;;;;4978902;28;19929;-74
2022/11/04 15:44:28;;;;;;;;;;;9.80;99.90;;;;;;4993820;28;19932;-75
2022/11/04 15:46:59;;;;;;;;;;;9.70;99.90;;;;;;4994280;28;19980;-74